createdAt,value
2023-06-19T00:01:17.868Z,6.65
2023-06-19T00:03:45.706Z,7.22
2023-06-19T00:06:13.828Z,6.45
2023-06-19T00:08:41.680Z,7.18
2023-06-19T00:11:09.840Z,6.43
2023-06-19T00:13:37.720Z,6.63
2023-06-19T00:16:05.893Z,6.80
2023-06-19T00:18:33.756Z,6.10
2023-06-19T00:21:01.851Z,6.85
2023-06-19T00:23:29.669Z,6.70
2023-06-19T00:25:57.753Z,7.22
2023-06-19T00:28:25.698Z,6.72
2023-06-19T00:30:53.842Z,6.68
2023-06-19T00:33:22.148Z,7.07
2023-06-19T00:35:53.242Z,6.07
2023-06-19T00:38:21.122Z,6.50
2023-06-19T00:40:49.314Z,7.63
2023-06-19T00:43:17.166Z,7.45
2023-06-19T00:45:45.298Z,7.55
2023-06-19T00:48:13.285Z,6.50
2023-06-19T00:50:41.404Z,6.43
2023-06-19T00:53:11.498Z,6.43
2023-06-19T00:55:39.685Z,6.47
2023-06-19T00:58:07.597Z,6.03
2023-06-19T01:00:35.725Z,6.85
2023-06-19T01:03:03.764Z,6.95
2023-06-19T01:05:32.172Z,6.32
2023-06-19T01:08:49.883Z,7.20
2023-06-19T01:11:26.468Z,6.95
2023-06-19T01:14:09.697Z,6.97
2023-06-19T01:16:38.661Z,7.53
2023-06-19T01:19:11.275Z,8.00
2023-06-19T01:21:39.470Z,7.03
2023-06-19T01:24:07.354Z,7.10
2023-06-19T01:26:35.854Z,7.47
2023-06-19T01:29:04.227Z,6.63
2023-06-19T01:31:37.929Z,6.68
2023-06-19T01:34:08.732Z,7.35
2023-06-19T01:36:37.313Z,7.13
2023-06-19T01:39:06.569Z,6.50
2023-06-19T01:41:35.324Z,7.55
2023-06-19T01:44:03.789Z,7.35
2023-06-19T01:46:32.034Z,7.18
2023-06-19T01:48:59.948Z,7.55
2023-06-19T01:51:28.057Z,7.53
2023-06-19T01:53:56.770Z,8.20
2023-06-19T01:56:24.922Z,7.95
2023-06-19T01:58:52.784Z,7.38
2023-06-19T02:01:20.911Z,7.35
2023-06-19T02:03:48.822Z,7.93
2023-06-19T02:06:17.137Z,6.93
2023-06-19T02:08:45.136Z,8.43
2023-06-19T02:11:13.300Z,7.65
2023-06-19T02:13:41.374Z,8.02
2023-06-19T02:16:09.536Z,7.93
2023-06-19T02:18:37.452Z,8.35
2023-06-19T02:21:05.623Z,8.10
2023-06-19T02:23:33.490Z,8.38
2023-06-19T02:26:01.698Z,8.55
2023-06-19T02:28:29.550Z,9.00
2023-06-19T02:30:57.893Z,8.50
2023-06-19T02:33:25.810Z,9.07
2023-06-19T02:35:53.920Z,9.00
2023-06-19T02:38:21.739Z,8.73
2023-06-19T02:40:49.846Z,7.50
2023-06-19T02:43:17.733Z,8.90
2023-06-19T02:45:45.884Z,9.13
2023-06-19T02:48:13.732Z,8.75
2023-06-19T02:50:41.876Z,9.15
2023-06-19T02:53:09.793Z,8.20
2023-06-19T02:55:37.999Z,7.97
2023-06-19T02:58:05.869Z,8.55
2023-06-19T03:00:55.654Z,8.23
2023-06-19T03:03:23.601Z,8.00
2023-06-19T03:05:52.038Z,7.90
2023-06-19T03:08:19.880Z,8.55
2023-06-19T03:10:48.046Z,8.50
2023-06-19T03:13:15.954Z,8.02
2023-06-19T03:15:44.213Z,8.15
2023-06-19T03:18:12.139Z,8.75
2023-06-19T03:20:40.369Z,8.50
2023-06-19T03:23:08.329Z,8.43
2023-06-19T03:25:37.540Z,9.15
2023-06-19T03:28:05.434Z,8.90
2023-06-19T03:30:33.556Z,8.90
2023-06-19T03:33:01.408Z,10.23
2023-06-19T03:35:29.569Z,10.13
2023-06-19T03:37:57.407Z,9.27
2023-06-19T03:40:25.732Z,9.32
2023-06-19T03:42:53.781Z,9.30
2023-06-19T03:45:21.922Z,9.10
2023-06-19T03:47:49.786Z,9.57
2023-06-19T03:50:21.420Z,8.93
2023-06-19T03:52:49.096Z,9.40
2023-06-19T03:55:16.726Z,8.25
2023-06-19T05:04:26.179Z,7.82
2023-06-19T05:06:53.486Z,8.50
2023-06-19T05:09:21.165Z,7.80
2023-06-19T06:18:28.402Z,7.28
2023-06-19T06:20:55.724Z,7.00
2023-06-19T09:55:05.074Z,4.15
2023-06-19T09:57:35.988Z,3.80
